createdAt,value
2023-03-06T06:49:42.988Z,2.10
2023-03-06T06:52:44.737Z,2.30
2023-03-06T06:55:46.595Z,2.70
2023-03-06T06:58:48.341Z,2.80
2023-03-06T07:01:53.472Z,2.90
2023-03-06T07:05:06.938Z,3.20
2023-03-06T07:08:09.662Z,3.40
2023-03-06T07:11:15.202Z,3.50
2023-03-06T07:14:23.170Z,3.50
2023-03-06T07:17:27.189Z,3.50
2023-03-06T07:20:34.230Z,3.70
2023-03-06T07:23:37.950Z,3.80
2023-03-06T07:26:47.997Z,3.60
2023-03-06T07:29:51.189Z,3.50
2023-03-06T07:32:55.675Z,3.60
2023-03-06T07:35:58.484Z,3.50
2023-03-06T07:39:02.686Z,3.60
2023-03-06T07:42:04.588Z,3.70
2023-03-06T07:45:08.673Z,3.60
2023-03-06T07:48:10.640Z,3.70
2023-03-06T07:51:18.543Z,3.60
2023-03-06T07:54:20.303Z,3.50
2023-03-06T07:57:21.985Z,3.30
2023-03-06T08:00:24.491Z,3.50
2023-03-06T08:03:26.324Z,3.70
2023-03-06T08:06:28.508Z,3.50
2023-03-06T08:09:30.563Z,3.20
2023-03-06T08:12:32.857Z,3.30
2023-03-06T08:15:34.707Z,3.20
2023-03-06T08:18:39.616Z,3.30
2023-03-06T08:21:43.591Z,3.30
2023-03-06T08:24:45.344Z,3.30
2023-03-06T08:27:47.448Z,3.20
2023-03-06T08:30:50.537Z,3.40
2023-03-06T08:33:53.612Z,3.30
2023-03-06T08:36:55.399Z,3.40
2023-03-06T08:39:57.143Z,3.60
2023-03-06T08:42:58.922Z,3.50
2023-03-06T08:46:01.454Z,3.50
2023-03-06T08:49:04.172Z,3.30
2023-03-06T08:52:07.302Z,3.10
2023-03-06T08:55:09.556Z,3.40
2023-03-06T08:58:12.985Z,3.60
2023-03-06T09:01:21.111Z,3.60
2023-03-06T09:04:27.286Z,3.60
2023-03-06T09:07:33.341Z,3.90
2023-03-06T09:10:42.154Z,3.90
2023-03-06T09:13:47.249Z,3.90
2023-03-06T09:17:00.468Z,4.10
2023-03-06T09:20:09.243Z,4.10
2023-03-06T09:23:19.537Z,4.10
2023-03-06T09:26:39.712Z,3.80
2023-03-06T09:29:48.062Z,4.10
2023-03-06T09:32:50.377Z,3.90
2023-03-06T09:35:56.064Z,4.10
2023-03-06T09:38:58.070Z,3.80
2023-03-06T09:42:00.662Z,4.00
2023-03-06T09:45:06.931Z,4.10
2023-03-06T09:48:15.966Z,4.30
2023-03-06T09:51:23.339Z,4.20
2023-03-06T09:54:51.630Z,4.40
2023-03-06T09:58:17.838Z,4.40
2023-03-06T10:01:24.859Z,4.40
2023-03-06T10:04:36.467Z,4.70
2023-03-06T10:07:44.499Z,4.60
2023-03-06T10:11:06.092Z,4.60
2023-03-06T10:14:36.479Z,4.30
2023-03-06T10:17:43.661Z,4.30
2023-03-06T10:21:18.631Z,4.30
2023-03-06T10:24:47.591Z,4.60
2023-03-06T10:28:03.890Z,5.10
2023-03-06T10:31:23.877Z,5.20
2023-03-06T10:34:37.616Z,5.40
2023-03-06T10:37:39.472Z,5.40
2023-03-06T10:40:52.328Z,5.30
2023-03-06T10:44:00.815Z,5.20
2023-03-06T10:47:29.615Z,5.10
2023-03-06T10:50:42.029Z,4.80
2023-03-06T10:54:00.613Z,5.30
2023-03-06T10:57:49.675Z,5.10
2023-03-06T11:01:24.216Z,5.10
2023-03-06T11:04:43.819Z,5.30
2023-03-06T11:08:03.456Z,5.70
2023-03-06T11:11:28.216Z,5.90
2023-03-06T11:14:42.105Z,5.70
2023-03-06T11:18:14.301Z,5.70
2023-03-06T11:21:31.838Z,6.00
2023-03-06T11:24:45.600Z,6.60
2023-03-06T11:28:01.835Z,6.80
2023-03-06T11:31:24.740Z,6.50
2023-03-06T11:34:50.575Z,6.30
2023-03-06T11:38:20.472Z,6.10
2023-03-06T11:41:26.172Z,6.20
2023-03-06T11:44:41.566Z,6.60
2023-03-06T11:47:49.512Z,6.70
2023-03-06T11:50:55.705Z,6.70
2023-03-06T11:54:00.416Z,6.70
2023-03-06T11:57:06.826Z,6.70
2023-03-06T12:00:29.386Z,6.80
2023-03-06T12:04:07.304Z,7.00
2023-03-06T12:07:44.442Z,6.70
2023-03-06T12:10:52.237Z,6.30
2023-03-06T12:14:04.124Z,6.70
2023-03-06T12:17:11.068Z,6.70
2023-03-06T12:20:50.423Z,6.90
2023-03-06T12:24:19.115Z,6.80
2023-03-06T12:27:35.987Z,7.30
2023-03-06T12:30:46.717Z,7.40
2023-03-06T12:34:05.750Z,7.50
2023-03-06T12:37:28.590Z,7.10
2023-03-06T12:40:51.515Z,7.30
2023-03-06T12:44:14.324Z,7.20
2023-03-06T12:47:21.712Z,7.20
2023-03-06T12:50:32.240Z,7.30
2023-03-06T12:53:35.770Z,6.90
2023-03-06T12:56:40.400Z,6.90
2023-03-06T12:59:56.468Z,6.90
2023-03-06T13:03:27.302Z,7.00
2023-03-06T13:07:24.752Z,7.10
2023-03-06T13:10:38.484Z,7.00
2023-03-06T13:13:50.701Z,7.10
2023-03-06T13:16:57.944Z,7.50
2023-03-06T13:20:14.969Z,7.00
2023-03-06T13:23:50.011Z,7.20
2023-03-06T13:27:07.697Z,7.30
2023-03-06T13:30:37.949Z,6.30
2023-03-06T13:33:40.761Z,6.30
2023-03-06T13:36:46.123Z,6.40
2023-03-06T13:40:00.014Z,5.80
2023-03-06T13:43:05.333Z,5.70
2023-03-06T13:46:30.922Z,6.10
2023-03-06T13:49:33.940Z,6.10
2023-03-06T13:52:39.711Z,6.30
2023-03-06T13:56:02.397Z,6.30
2023-03-06T13:59:19.178Z,6.00
2023-03-06T14:02:40.196Z,5.70
2023-03-06T14:05:49.986Z,5.70
2023-03-06T14:08:52.013Z,6.10
2023-03-06T14:12:02.418Z,6.10
2023-03-06T14:15:11.650Z,6.20
2023-03-06T14:18:13.245Z,6.10
2023-03-06T14:21:21.469Z,6.20
2023-03-06T14:24:43.346Z,6.40
2023-03-06T14:27:52.573Z,6.30
2023-03-06T14:30:57.075Z,5.70
2023-03-06T14:34:01.366Z,5.70
2023-03-06T14:37:05.671Z,5.50
2023-03-06T14:40:13.801Z,5.30
2023-03-06T14:43:27.796Z,5.40
2023-03-06T14:46:29.512Z,5.50
2023-03-06T14:49:31.189Z,5.30
2023-03-06T14:52:33.493Z,5.20
2023-03-06T14:55:36.146Z,5.20
2023-03-06T14:58:40.862Z,5.10
2023-03-06T15:01:46.460Z,5.10
2023-03-06T15:04:52.036Z,5.00
2023-03-06T15:07:56.977Z,5.00
2023-03-06T15:11:01.712Z,5.10
2023-03-06T15:14:04.960Z,4.80
2023-03-06T15:17:18.506Z,4.80
2023-03-06T15:20:44.140Z,4.90
2023-03-06T15:23:51.656Z,4.80
2023-03-06T15:26:55.144Z,4.80
2023-03-06T15:30:31.135Z,5.00
2023-03-06T15:33:33.052Z,5.00
2023-03-06T15:36:42.180Z,5.10
2023-03-06T15:39:43.850Z,5.00
2023-03-06T15:42:46.073Z,5.10
2023-03-06T15:45:47.790Z,5.00
2023-03-06T15:49:00.283Z,5.10
2023-03-06T15:52:03.405Z,4.90
2023-03-06T15:55:05.470Z,5.00
2023-03-06T15:58:09.988Z,5.20
2023-03-06T16:01:16.572Z,5.20
2023-03-06T16:04:19.914Z,5.10
2023-03-06T16:07:21.692Z,5.10
2023-03-06T16:10:25.850Z,4.70
2023-03-06T16:13:29.256Z,4.60
2023-03-06T16:16:36.271Z,4.60
2023-03-06T16:19:38.344Z,4.80
2023-03-06T16:22:39.990Z,4.80
2023-03-06T16:25:45.218Z,4.80
2023-03-06T16:28:48.012Z,4.60
2023-03-06T16:31:49.972Z,4.60
2023-03-06T16:34:51.646Z,4.60
2023-03-06T16:37:53.653Z,4.80
2023-03-06T16:40:55.310Z,4.70
2023-03-06T16:43:57.145Z,4.70
2023-03-06T16:47:00.560Z,4.60
2023-03-06T16:50:04.170Z,4.70
2023-03-06T16:53:06.735Z,4.50
2023-03-06T16:56:14.270Z,4.40
2023-03-06T16:59:15.956Z,4.50
